Bookmark and Share
Track history (hours):
 

Irini

Last reported at 2014-Apr-17 16:30 UTC. Time now 2014-Apr-20 03:15 UTC.
Position N 37°44' E 024°19'.

Length 137 m; draft 7.5 m.

Type: Tanker. MMSI: 240052000.

NotesDate/timePositionNaut miles runAvg speedWind from/ knotsBaromVisibWave heightAir tempDewpointWater temp
2014-Apr-17 16:30N 37°44' E 024°19'1111.5
2014-Apr-17 15:32N 37°37' E 024°08'2110.8
2014-Apr-17 13:33N 37°42' E 023°42'1211.5
2014-Apr-17 12:33N 37°52' E 023°37'9 0.4
2014-Apr-16 15:23N 38°01' E 023°35'6 6.8
2014-Apr-16 14:34N 37°55' E 023°36'5 5.0
2014-Apr-16 13:33N 37°51' E 023°39'1211.7
2014-Apr-16 12:32N 37°41' E 023°47'1010.6
2014-Apr-16 11:33N 37°37' E 023°60'30 9.8
2014-Apr-16 08:27N 37°54' E 024°31'5510.4
2014-Apr-16 03:12N 38°46' E 024°08'  
2014-Apr-13 21:16N 38°50' E 024°04'6010.1
2014-Apr-13 15:22N 37°54' E 024°33'911.2
2014-Apr-13 14:32N 37°49' E 024°24'1411.2
2014-Apr-13 13:20N 37°39' E 024°12'810.4
2014-Apr-13 12:33N 37°36' E 024°02'1111.4
2014-Apr-13 11:33N 37°39' E 023°48'1110.6
2014-Apr-13 10:33N 37°47' E 023°39'1010.0
2014-Apr-13 09:33N 37°57' E 023°36'6 6.2
2014-Apr-13 08:33N 38°02' E 023°31'1 0.0
2014-Apr-12 11:18N 38°02' E 023°31'1 0.2
2014-Apr-12 07:16N 38°01' E 023°31'4 1.9
2014-Apr-12 05:28N 37°58' E 023°33'9 9.4
2014-Apr-12 04:33N 37°51' E 023°39'1211.8
2014-Apr-12 03:33N 37°40' E 023°46'1211.7
2014-Apr-12 02:33N 37°37' E 023°60'  
2014-Apr-08 14:29N 37°56' E 024°35'910.1
2014-Apr-08 13:32N 37°49' E 024°26'1510.8
2014-Apr-08 12:07N 37°39' E 024°11'610.3
2014-Apr-08 11:32N 37°36' E 024°05'1510.9
2014-Apr-08 10:10N 37°38' E 023°47'710.9
2014-Apr-08 09:33N 37°43' E 023°41'1111.4
2014-Apr-08 08:33N 37°54' E 023°37'  

Dump ship's entire track history

sailing weather and tide predictions

Irini — SYZA — position and weather